CheckWX is a tool to help pilots better visualize weather data.  It is not intended as a substitute for an official pre-flight weather briefing.

03:48:04 UTC

KSYI METAR
Bomar Field-Shelbyville Municipal Airport
Shelbyville, Tennessee, USA
Current

33 mins ago

KSYI 230315Z AUTO 00000KT 10SM OVC047 22/22 A2995 RMK A01
Observed
Jul-23 @ 03:15 UTC
Visibility
10 SM
Flight Rules
VFR
Cloud Levels
  • Overcast at 4,700' AGL
Temperature
22°C / 72°F
Dewpoint
22°C / 72°F
Humidity
100%
Altimeter
29.95" Hg
Pressure
1014.22 hPa
Previous

53 mins ago

KSYI 230255Z AUTO 00000KT 10SM FEW004 BKN043 OVC060 22/22 A2995 RMK A01
Observed
Jul-23 @ 02:55 UTC
Visibility
10 SM
Flight Rules
VFR
Cloud Levels
  • Few at 400' AGL
  • Broken at 4,300' AGL
  • Overcast at 6,000' AGL
Temperature
22°C / 72°F
Dewpoint
22°C / 72°F
Humidity
100%
Altimeter
29.95" Hg
Pressure
1014.22 hPa
Previous

1 hour ago

KSYI 230235Z AUTO 17003KT 10SM BKN004 OVC045 22/22 A2995 RMK A01
Observed
Jul-23 @ 02:35 UTC
Wind
  • 170° at 3 KTS
Visibility
10 SM
Flight Rules
LIFR
Cloud Levels
  • Broken at 400' AGL
  • Overcast at 4,500' AGL
Temperature
22°C / 72°F
Dewpoint
22°C / 72°F
Humidity
100%
Altimeter
29.95" Hg
Pressure
1014.22 hPa